sensor_id;sensor_type;location;lat;lon;timestamp;temperature;humidity
18777;DHT22;9517;51.174;4.160;2022-08-03T00:00:56;21.60;99.90
18777;DHT22;9517;51.174;4.160;2022-08-03T00:03:23;21.60;99.90
18777;DHT22;9517;51.174;4.160;2022-08-03T00:05:50;21.70;99.90
18777;DHT22;9517;51.174;4.160;2022-08-03T00:08:19;21.70;99.90
18777;DHT22;9517;51.174;4.160;2022-08-03T00:10:46;21.60;99.90
18777;DHT22;9517;51.174;4.160;2022-08-03T00:13:13;21.60;99.90
18777;DHT22;9517;51.174;4.160;2022-08-03T00:15:41;21.50;99.90
18777;DHT22;9517;51.174;4.160;2022-08-03T00:18:08;21.40;99.90
18777;DHT22;9517;51.174;4.160;2022-08-03T00:20:35;21.40;99.90
18777;DHT22;9517;51.174;4.160;2022-08-03T00:23:03;21.40;99.90
18777;DHT22;9517;51.174;4.160;2022-08-03T00:25:33;21.30;99.90
18777;DHT22;9517;51.174;4.160;2022-08-03T00:28:00;21.40;99.90
18777;DHT22;9517;51.174;4.160;2022-08-03T00:30:27;21.30;99.90
18777;DHT22;9517;51.174;4.160;2022-08-03T00:32:54;21.30;99.90
18777;DHT22;9517;51.174;4.160;2022-08-03T00:35:22;21.30;99.90
18777;DHT22;9517;51.174;4.160;2022-08-03T00:37:49;21.30;99.90
18777;DHT22;9517;51.174;4.160;2022-08-03T00:40:17;21.40;99.90
18777;DHT22;9517;51.174;4.160;2022-08-03T00:42:51;21.30;99.90
18777;DHT22;9517;51.174;4.160;2022-08-03T00:45:19;21.30;99.90
18777;DHT22;9517;51.174;4.160;2022-08-03T00:47:47;21.30;99.90
18777;DHT22;9517;51.174;4.160;2022-08-03T00:50:15;21.20;99.90
18777;DHT22;9517;51.174;4.160;2022-08-03T00:52:43;21.20;99.90
18777;DHT22;9517;51.174;4.160;2022-08-03T00:55:10;21.10;99.90
18777;DHT22;9517;51.174;4.160;2022-08-03T00:57:38;21.20;99.90
18777;DHT22;9517;51.174;4.160;2022-08-03T01:00:08;21.20;99.90
18777;DHT22;9517;51.174;4.160;2022-08-03T01:02:38;21.10;99.90
18777;DHT22;9517;51.174;4.160;2022-08-03T01:05:07;21.10;99.90
18777;DHT22;9517;51.174;4.160;2022-08-03T01:07:45;21.00;99.90
18777;DHT22;9517;51.174;4.160;2022-08-03T01:10:25;20.90;99.90
18777;DHT22;9517;51.174;4.160;2022-08-03T01:12:58;20.80;99.90
18777;DHT22;9517;51.174;4.160;2022-08-03T01:15:33;20.80;99.90
18777;DHT22;9517;51.174;4.160;2022-08-03T01:18:07;20.80;99.90
18777;DHT22;9517;51.174;4.160;2022-08-03T01:20:39;20.90;99.90
18777;DHT22;9517;51.174;4.160;2022-08-03T01:26:11;20.90;99.90
18777;DHT22;9517;51.174;4.160;2022-08-03T01:28:53;20.90;99.90
18777;DHT22;9517;51.174;4.160;2022-08-03T01:31:27;20.80;99.90
18777;DHT22;9517;51.174;4.160;2022-08-03T01:33:59;20.70;99.90
18777;DHT22;9517;51.174;4.160;2022-08-03T01:36:31;20.60;99.90
18777;DHT22;9517;51.174;4.160;2022-08-03T01:39:02;20.60;99.90
18777;DHT22;9517;51.174;4.160;2022-08-03T01:41:38;20.50;99.90
18777;DHT22;9517;51.174;4.160;2022-08-03T01:44:09;20.60;99.90
18777;DHT22;9517;51.174;4.160;2022-08-03T01:46:39;20.60;99.90
18777;DHT22;9517;51.174;4.160;2022-08-03T01:49:09;20.60;99.90
18777;DHT22;9517;51.174;4.160;2022-08-03T01:51:38;20.50;99.90
18777;DHT22;9517;51.174;4.160;2022-08-03T01:54:08;20.30;99.90
18777;DHT22;9517;51.174;4.160;2022-08-03T01:56:37;20.30;99.90
18777;DHT22;9517;51.174;4.160;2022-08-03T01:59:06;20.20;99.90
18777;DHT22;9517;51.174;4.160;2022-08-03T02:01:35;20.10;99.90
18777;DHT22;9517;51.174;4.160;2022-08-03T02:04:07;20.10;99.90
18777;DHT22;9517;51.174;4.160;2022-08-03T02:06:36;20.20;99.90
18777;DHT22;9517;51.174;4.160;2022-08-03T02:09:05;20.20;99.90
18777;DHT22;9517;51.174;4.160;2022-08-03T02:11:34;20.10;99.90
18777;DHT22;9517;51.174;4.160;2022-08-03T02:14:04;20.10;99.90
18777;DHT22;9517;51.174;4.160;2022-08-03T02:16:33;20.10;99.90
18777;DHT22;9517;51.174;4.160;2022-08-03T02:19:03;20.20;99.90
18777;DHT22;9517;51.174;4.160;2022-08-03T02:21:35;20.10;99.90
18777;DHT22;9517;51.174;4.160;2022-08-03T02:24:03;20.10;99.90
18777;DHT22;9517;51.174;4.160;2022-08-03T02:26:31;20.00;99.90
18777;DHT22;9517;51.174;4.160;2022-08-03T02:29:04;20.00;99.90
18777;DHT22;9517;51.174;4.160;2022-08-03T02:31:33;19.90;99.90
18777;DHT22;9517;51.174;4.160;2022-08-03T02:34:07;19.90;99.90
18777;DHT22;9517;51.174;4.160;2022-08-03T02:36:38;19.90;99.90
18777;DHT22;9517;51.174;4.160;2022-08-03T02:39:10;19.80;99.90
18777;DHT22;9517;51.174;4.160;2022-08-03T02:41:45;19.70;99.90
18777;DHT22;9517;51.174;4.160;2022-08-03T02:44:13;19.70;99.90
18777;DHT22;9517;51.174;4.160;2022-08-03T02:46:44;19.70;99.90
18777;DHT22;9517;51.174;4.160;2022-08-03T02:49:13;19.70;99.90
18777;DHT22;9517;51.174;4.160;2022-08-03T02:51:46;19.90;99.90
18777;DHT22;9517;51.174;4.160;2022-08-03T02:54:16;19.80;99.90
18777;DHT22;9517;51.174;4.160;2022-08-03T02:56:45;19.90;99.90
18777;DHT22;9517;51.174;4.160;2022-08-03T02:59:14;20.00;99.90
18777;DHT22;9517;51.174;4.160;2022-08-03T03:01:43;19.90;99.90
18777;DHT22;9517;51.174;4.160;2022-08-03T03:04:11;19.90;99.90
18777;DHT22;9517;51.174;4.160;2022-08-03T03:06:39;19.70;99.90
18777;DHT22;9517;51.174;4.160;2022-08-03T03:09:08;19.80;99.90
18777;DHT22;9517;51.174;4.160;2022-08-03T03:11:37;19.70;99.90
18777;DHT22;9517;51.174;4.160;2022-08-03T03:14:04;19.70;99.90
18777;DHT22;9517;51.174;4.160;2022-08-03T03:16:33;19.60;99.90
18777;DHT22;9517;51.174;4.160;2022-08-03T03:19:01;19.60;99.90
18777;DHT22;9517;51.174;4.160;2022-08-03T03:21:30;19.70;99.90
18777;DHT22;9517;51.174;4.160;2022-08-03T03:23:58;19.60;99.90
18777;DHT22;9517;51.174;4.160;2022-08-03T03:26:27;19.70;99.90
18777;DHT22;9517;51.174;4.160;2022-08-03T03:28:55;19.60;99.90
18777;DHT22;9517;51.174;4.160;2022-08-03T03:31:22;19.60;99.90
18777;DHT22;9517;51.174;4.160;2022-08-03T03:33:49;19.70;99.90
18777;DHT22;9517;51.174;4.160;2022-08-03T03:36:17;19.70;99.90
18777;DHT22;9517;51.174;4.160;2022-08-03T03:38:44;19.60;99.90
18777;DHT22;9517;51.174;4.160;2022-08-03T03:41:11;19.60;99.90
18777;DHT22;9517;51.174;4.160;2022-08-03T03:43:40;19.60;99.90
18777;DHT22;9517;51.174;4.160;2022-08-03T03:46:09;19.50;99.90
18777;DHT22;9517;51.174;4.160;2022-08-03T03:48:38;19.50;99.90
18777;DHT22;9517;51.174;4.160;2022-08-03T03:51:06;19.60;99.90
18777;DHT22;9517;51.174;4.160;2022-08-03T03:53:33;19.50;99.90
18777;DHT22;9517;51.174;4.160;2022-08-03T03:56:00;19.40;99.90
18777;DHT22;9517;51.174;4.160;2022-08-03T03:58:27;19.40;99.90
18777;DHT22;9517;51.174;4.160;2022-08-03T04:00:55;19.40;99.90
18777;DHT22;9517;51.174;4.160;2022-08-03T04:03:23;19.40;99.90
18777;DHT22;9517;51.174;4.160;2022-08-03T04:05:50;19.20;99.90
18777;DHT22;9517;51.174;4.160;2022-08-03T04:08:42;19.30;99.90
18777;DHT22;9517;51.174;4.160;2022-08-03T04:11:30;19.30;99.90
18777;DHT22;9517;51.174;4.160;2022-08-03T04:14:07;19.30;99.90
18777;DHT22;9517;51.174;4.160;2022-08-03T04:16:40;19.30;99.90
18777;DHT22;9517;51.174;4.160;2022-08-03T04:19:10;19.40;99.90
18777;DHT22;9517;51.174;4.160;2022-08-03T04:21:40;19.40;99.90
18777;DHT22;9517;51.174;4.160;2022-08-03T04:24:10;19.30;99.90
18777;DHT22;9517;51.174;4.160;2022-08-03T04:26:39;19.30;99.90
18777;DHT22;9517;51.174;4.160;2022-08-03T04:29:09;19.20;99.90
18777;DHT22;9517;51.174;4.160;2022-08-03T04:31:40;19.20;99.90
18777;DHT22;9517;51.174;4.160;2022-08-03T04:34:07;19.30;99.90
18777;DHT22;9517;51.174;4.160;2022-08-03T04:36:38;19.30;99.90
18777;DHT22;9517;51.174;4.160;2022-08-03T04:39:15;19.20;99.90
18777;DHT22;9517;51.174;4.160;2022-08-03T04:41:43;19.30;99.90
18777;DHT22;9517;51.174;4.160;2022-08-03T04:44:12;19.30;99.90
18777;DHT22;9517;51.174;4.160;2022-08-03T04:46:42;19.30;99.90
18777;DHT22;9517;51.174;4.160;2022-08-03T04:49:10;19.30;99.90
18777;DHT22;9517;51.174;4.160;2022-08-03T04:51:37;19.30;99.90
18777;DHT22;9517;51.174;4.160;2022-08-03T04:54:05;19.30;99.90
18777;DHT22;9517;51.174;4.160;2022-08-03T04:56:33;19.40;99.90
18777;DHT22;9517;51.174;4.160;2022-08-03T04:59:00;19.40;99.90
18777;DHT22;9517;51.174;4.160;2022-08-03T05:01:27;19.40;99.90
18777;DHT22;9517;51.174;4.160;2022-08-03T05:03:56;19.50;99.90
18777;DHT22;9517;51.174;4.160;2022-08-03T05:06:23;19.60;99.90
18777;DHT22;9517;51.174;4.160;2022-08-03T05:08:50;19.60;99.90
18777;DHT22;9517;51.174;4.160;2022-08-03T05:11:17;19.60;99.90
18777;DHT22;9517;51.174;4.160;2022-08-03T05:13:44;19.60;99.90
18777;DHT22;9517;51.174;4.160;2022-08-03T05:16:12;19.70;99.90
18777;DHT22;9517;51.174;4.160;2022-08-03T05:18:39;19.70;99.90
18777;DHT22;9517;51.174;4.160;2022-08-03T05:21:08;19.80;99.90
18777;DHT22;9517;51.174;4.160;2022-08-03T05:23:37;19.90;99.90
18777;DHT22;9517;51.174;4.160;2022-08-03T05:26:04;19.90;99.90
18777;DHT22;9517;51.174;4.160;2022-08-03T05:28:31;19.90;99.90
18777;DHT22;9517;51.174;4.160;2022-08-03T05:30:58;20.10;99.90
18777;DHT22;9517;51.174;4.160;2022-08-03T05:33:25;20.20;99.90
18777;DHT22;9517;51.174;4.160;2022-08-03T05:35:52;20.20;99.90
18777;DHT22;9517;51.174;4.160;2022-08-03T05:38:20;20.30;99.90
18777;DHT22;9517;51.174;4.160;2022-08-03T05:40:47;20.30;99.90
18777;DHT22;9517;51.174;4.160;2022-08-03T05:43:14;20.40;99.90
18777;DHT22;9517;51.174;4.160;2022-08-03T05:45:41;20.50;99.90
18777;DHT22;9517;51.174;4.160;2022-08-03T05:48:08;20.50;99.90
18777;DHT22;9517;51.174;4.160;2022-08-03T05:50:35;20.70;99.90
18777;DHT22;9517;51.174;4.160;2022-08-03T05:53:02;20.70;99.90
18777;DHT22;9517;51.174;4.160;2022-08-03T05:55:31;20.80;99.90
18777;DHT22;9517;51.174;4.160;2022-08-03T05:57:58;20.90;99.90
18777;DHT22;9517;51.174;4.160;2022-08-03T06:00:27;21.00;99.90
18777;DHT22;9517;51.174;4.160;2022-08-03T06:02:54;21.10;99.90
18777;DHT22;9517;51.174;4.160;2022-08-03T06:05:21;21.10;99.90
18777;DHT22;9517;51.174;4.160;2022-08-03T06:07:51;21.20;99.90
18777;DHT22;9517;51.174;4.160;2022-08-03T06:10:19;21.20;99.90
18777;DHT22;9517;51.174;4.160;2022-08-03T06:12:47;21.20;99.90
18777;DHT22;9517;51.174;4.160;2022-08-03T06:15:15;21.20;99.90
18777;DHT22;9517;51.174;4.160;2022-08-03T06:17:46;21.30;99.90
18777;DHT22;9517;51.174;4.160;2022-08-03T06:20:16;21.40;99.90
18777;DHT22;9517;51.174;4.160;2022-08-03T06:22:43;21.50;99.90
18777;DHT22;9517;51.174;4.160;2022-08-03T06:25:10;21.70;99.90
18777;DHT22;9517;51.174;4.160;2022-08-03T06:27:37;21.90;99.90
18777;DHT22;9517;51.174;4.160;2022-08-03T06:30:07;21.90;99.90
18777;DHT22;9517;51.174;4.160;2022-08-03T06:32:35;22.00;99.90
18777;DHT22;9517;51.174;4.160;2022-08-03T06:35:03;22.00;99.90
18777;DHT22;9517;51.174;4.160;2022-08-03T06:37:30;22.10;99.90
18777;DHT22;9517;51.174;4.160;2022-08-03T06:43:21;22.40;99.90
18777;DHT22;9517;51.174;4.160;2022-08-03T06:45:50;22.50;99.90
18777;DHT22;9517;51.174;4.160;2022-08-03T06:48:17;22.70;99.90
18777;DHT22;9517;51.174;4.160;2022-08-03T06:50:44;22.70;99.90
18777;DHT22;9517;51.174;4.160;2022-08-03T06:53:11;22.70;99.90
18777;DHT22;9517;51.174;4.160;2022-08-03T06:55:38;22.80;99.90
18777;DHT22;9517;51.174;4.160;2022-08-03T06:58:05;22.80;99.90
18777;DHT22;9517;51.174;4.160;2022-08-03T07:00:32;22.90;99.90
18777;DHT22;9517;51.174;4.160;2022-08-03T07:03:00;23.10;99.90
18777;DHT22;9517;51.174;4.160;2022-08-03T07:05:27;23.10;99.90
18777;DHT22;9517;51.174;4.160;2022-08-03T07:07:55;23.20;99.90
18777;DHT22;9517;51.174;4.160;2022-08-03T07:10:23;23.20;99.90
18777;DHT22;9517;51.174;4.160;2022-08-03T07:12:52;23.40;99.90
18777;DHT22;9517;51.174;4.160;2022-08-03T07:15:19;23.50;99.90
18777;DHT22;9517;51.174;4.160;2022-08-03T07:17:46;23.80;99.90
18777;DHT22;9517;51.174;4.160;2022-08-03T07:20:15;24.00;99.90
18777;DHT22;9517;51.174;4.160;2022-08-03T07:22:42;24.00;99.90
18777;DHT22;9517;51.174;4.160;2022-08-03T07:25:10;24.20;99.90
18777;DHT22;9517;51.174;4.160;2022-08-03T07:27:37;24.10;99.90
18777;DHT22;9517;51.174;4.160;2022-08-03T07:30:06;24.20;99.90
18777;DHT22;9517;51.174;4.160;2022-08-03T07:32:34;24.30;99.90
18777;DHT22;9517;51.174;4.160;2022-08-03T07:35:01;24.40;99.90
18777;DHT22;9517;51.174;4.160;2022-08-03T07:37:29;24.40;99.90
18777;DHT22;9517;51.174;4.160;2022-08-03T07:39:56;24.50;99.90
18777;DHT22;9517;51.174;4.160;2022-08-03T07:42:24;24.40;99.90
18777;DHT22;9517;51.174;4.160;2022-08-03T07:44:51;24.50;99.90
18777;DHT22;9517;51.174;4.160;2022-08-03T07:47:18;24.50;99.90
18777;DHT22;9517;51.174;4.160;2022-08-03T07:49:45;24.80;99.90
18777;DHT22;9517;51.174;4.160;2022-08-03T07:52:12;24.80;99.90
18777;DHT22;9517;51.174;4.160;2022-08-03T07:54:58;24.70;99.90
18777;DHT22;9517;51.174;4.160;2022-08-03T07:57:25;25.00;99.90
18777;DHT22;9517;51.174;4.160;2022-08-03T07:59:52;25.10;99.90
18777;DHT22;9517;51.174;4.160;2022-08-03T08:02:19;25.10;99.90
18777;DHT22;9517;51.174;4.160;2022-08-03T08:04:46;25.20;99.90
18777;DHT22;9517;51.174;4.160;2022-08-03T08:07:13;25.20;99.90
18777;DHT22;9517;51.174;4.160;2022-08-03T08:09:40;25.40;99.90
18777;DHT22;9517;51.174;4.160;2022-08-03T08:24:30;25.60;99.90
18777;DHT22;9517;51.174;4.160;2022-08-03T08:26:58;26.70;99.90
18777;DHT22;9517;51.174;4.160;2022-08-03T08:29:25;26.60;99.90
18777;DHT22;9517;51.174;4.160;2022-08-03T08:31:52;26.80;99.90
18777;DHT22;9517;51.174;4.160;2022-08-03T08:34:19;27.00;99.90
18777;DHT22;9517;51.174;4.160;2022-08-03T08:36:47;26.90;99.90
18777;DHT22;9517;51.174;4.160;2022-08-03T08:39:14;27.10;99.90
18777;DHT22;9517;51.174;4.160;2022-08-03T08:41:43;27.00;99.90
18777;DHT22;9517;51.174;4.160;2022-08-03T08:44:10;27.10;99.90
18777;DHT22;9517;51.174;4.160;2022-08-03T08:46:37;27.20;99.90
18777;DHT22;9517;51.174;4.160;2022-08-03T08:49:06;27.20;99.90
18777;DHT22;9517;51.174;4.160;2022-08-03T08:51:35;27.20;99.90
18777;DHT22;9517;51.174;4.160;2022-08-03T08:54:06;27.10;99.90
18777;DHT22;9517;51.174;4.160;2022-08-03T08:56:35;27.20;99.90
18777;DHT22;9517;51.174;4.160;2022-08-03T08:59:04;27.10;99.90
18777;DHT22;9517;51.174;4.160;2022-08-03T09:01:31;27.10;99.90
18777;DHT22;9517;51.174;4.160;2022-08-03T09:03:58;27.50;99.90
18777;DHT22;9517;51.174;4.160;2022-08-03T09:06:26;27.60;99.90
18777;DHT22;9517;51.174;4.160;2022-08-03T09:08:53;27.90;99.90
18777;DHT22;9517;51.174;4.160;2022-08-03T09:11:21;28.00;99.90
18777;DHT22;9517;51.174;4.160;2022-08-03T09:13:49;28.10;99.90
18777;DHT22;9517;51.174;4.160;2022-08-03T09:16:18;28.00;99.90
18777;DHT22;9517;51.174;4.160;2022-08-03T09:18:48;27.80;99.90
18777;DHT22;9517;51.174;4.160;2022-08-03T09:21:18;28.00;99.90
18777;DHT22;9517;51.174;4.160;2022-08-03T09:23:46;28.30;99.90
18777;DHT22;9517;51.174;4.160;2022-08-03T09:26:19;28.30;99.90
18777;DHT22;9517;51.174;4.160;2022-08-03T09:28:53;28.40;99.90
18777;DHT22;9517;51.174;4.160;2022-08-03T09:31:30;28.80;99.90
18777;DHT22;9517;51.174;4.160;2022-08-03T09:34:00;29.10;99.90
18777;DHT22;9517;51.174;4.160;2022-08-03T09:36:35;29.20;99.90
18777;DHT22;9517;51.174;4.160;2022-08-03T09:39:03;29.00;99.90
18777;DHT22;9517;51.174;4.160;2022-08-03T09:41:31;29.00;99.90
18777;DHT22;9517;51.174;4.160;2022-08-03T09:43:59;29.20;99.90
18777;DHT22;9517;51.174;4.160;2022-08-03T09:46:26;29.30;99.90
18777;DHT22;9517;51.174;4.160;2022-08-03T09:49:10;29.00;99.90
18777;DHT22;9517;51.174;4.160;2022-08-03T09:51:37;28.90;99.90
18777;DHT22;9517;51.174;4.160;2022-08-03T09:54:04;29.30;99.90
18777;DHT22;9517;51.174;4.160;2022-08-03T09:56:40;29.50;99.90
18777;DHT22;9517;51.174;4.160;2022-08-03T09:59:08;29.40;99.90
18777;DHT22;9517;51.174;4.160;2022-08-03T10:01:36;29.50;99.90
18777;DHT22;9517;51.174;4.160;2022-08-03T10:04:12;29.70;99.90
18777;DHT22;9517;51.174;4.160;2022-08-03T10:07:00;29.80;99.90
18777;DHT22;9517;51.174;4.160;2022-08-03T10:09:27;29.80;99.90
18777;DHT22;9517;51.174;4.160;2022-08-03T10:11:54;29.70;99.90
18777;DHT22;9517;51.174;4.160;2022-08-03T10:14:22;29.70;99.90
18777;DHT22;9517;51.174;4.160;2022-08-03T10:16:51;30.10;99.90
18777;DHT22;9517;51.174;4.160;2022-08-03T10:19:19;30.10;99.90
18777;DHT22;9517;51.174;4.160;2022-08-03T10:21:49;30.00;99.90
18777;DHT22;9517;51.174;4.160;2022-08-03T10:24:24;30.30;99.90
18777;DHT22;9517;51.174;4.160;2022-08-03T10:26:52;30.50;99.90
18777;DHT22;9517;51.174;4.160;2022-08-03T10:29:27;30.80;99.90
18777;DHT22;9517;51.174;4.160;2022-08-03T10:31:57;31.10;99.90
18777;DHT22;9517;51.174;4.160;2022-08-03T10:34:32;31.00;99.90
18777;DHT22;9517;51.174;4.160;2022-08-03T10:37:04;30.80;99.90
18777;DHT22;9517;51.174;4.160;2022-08-03T10:39:34;31.20;99.90
18777;DHT22;9517;51.174;4.160;2022-08-03T10:42:03;30.90;99.90
18777;DHT22;9517;51.174;4.160;2022-08-03T10:44:33;31.10;99.90
18777;DHT22;9517;51.174;4.160;2022-08-03T10:47:03;31.30;99.90
18777;DHT22;9517;51.174;4.160;2022-08-03T10:49:32;31.50;99.90
18777;DHT22;9517;51.174;4.160;2022-08-03T10:51:59;31.80;99.90
18777;DHT22;9517;51.174;4.160;2022-08-03T10:54:40;32.00;99.90
18777;DHT22;9517;51.174;4.160;2022-08-03T10:57:44;32.50;99.90
18777;DHT22;9517;51.174;4.160;2022-08-03T11:00:15;32.50;99.90
18777;DHT22;9517;51.174;4.160;2022-08-03T11:03:15;32.30;99.90
18777;DHT22;9517;51.174;4.160;2022-08-03T11:05:46;32.50;99.90
18777;DHT22;9517;51.174;4.160;2022-08-03T11:08:30;32.70;99.90
18777;DHT22;9517;51.174;4.160;2022-08-03T11:11:02;33.50;99.90
18777;DHT22;9517;51.174;4.160;2022-08-03T11:13:30;33.50;99.90
18777;DHT22;9517;51.174;4.160;2022-08-03T11:16:01;33.30;99.90
18777;DHT22;9517;51.174;4.160;2022-08-03T11:18:28;33.50;99.90
18777;DHT22;9517;51.174;4.160;2022-08-03T11:20:57;33.70;99.90
18777;DHT22;9517;51.174;4.160;2022-08-03T11:23:43;34.10;99.90
18777;DHT22;9517;51.174;4.160;2022-08-03T11:26:12;34.00;99.90
18777;DHT22;9517;51.174;4.160;2022-08-03T11:28:40;34.00;99.90
18777;DHT22;9517;51.174;4.160;2022-08-03T11:31:45;34.20;99.90
18777;DHT22;9517;51.174;4.160;2022-08-03T11:34:14;34.90;99.90
18777;DHT22;9517;51.174;4.160;2022-08-03T11:39:49;36.40;99.90
18777;DHT22;9517;51.174;4.160;2022-08-03T11:42:44;36.60;99.90
18777;DHT22;9517;51.174;4.160;2022-08-03T11:45:13;36.60;99.90
18777;DHT22;9517;51.174;4.160;2022-08-03T11:47:40;37.80;99.90
18777;DHT22;9517;51.174;4.160;2022-08-03T11:50:09;37.50;99.90
18777;DHT22;9517;51.174;4.160;2022-08-03T11:52:39;36.10;99.90
18777;DHT22;9517;51.174;4.160;2022-08-03T11:55:13;35.20;99.90
18777;DHT22;9517;51.174;4.160;2022-08-03T11:57:41;35.40;99.90
18777;DHT22;9517;51.174;4.160;2022-08-03T12:00:25;35.50;99.90
18777;DHT22;9517;51.174;4.160;2022-08-03T12:03:04;35.50;99.90
18777;DHT22;9517;51.174;4.160;2022-08-03T12:05:33;36.10;99.90
18777;DHT22;9517;51.174;4.160;2022-08-03T12:08:00;36.60;99.90
18777;DHT22;9517;51.174;4.160;2022-08-03T12:10:29;35.80;99.90
18777;DHT22;9517;51.174;4.160;2022-08-03T12:12:57;36.00;99.90
18777;DHT22;9517;51.174;4.160;2022-08-03T12:15:24;35.80;99.90
18777;DHT22;9517;51.174;4.160;2022-08-03T12:17:52;36.50;99.90
18777;DHT22;9517;51.174;4.160;2022-08-03T12:20:21;36.70;99.90
18777;DHT22;9517;51.174;4.160;2022-08-03T12:22:48;36.70;99.90
18777;DHT22;9517;51.174;4.160;2022-08-03T12:25:21;36.30;99.90
18777;DHT22;9517;51.174;4.160;2022-08-03T12:27:50;37.30;99.90
18777;DHT22;9517;51.174;4.160;2022-08-03T12:30:18;37.20;99.90
18777;DHT22;9517;51.174;4.160;2022-08-03T12:32:45;36.30;99.90
18777;DHT22;9517;51.174;4.160;2022-08-03T12:35:21;35.40;99.90
18777;DHT22;9517;51.174;4.160;2022-08-03T12:37:49;35.50;99.90
18777;DHT22;9517;51.174;4.160;2022-08-03T12:40:23;36.20;99.90
18777;DHT22;9517;51.174;4.160;2022-08-03T12:42:52;36.60;99.90
18777;DHT22;9517;51.174;4.160;2022-08-03T12:45:21;37.20;99.90
18777;DHT22;9517;51.174;4.160;2022-08-03T12:47:53;36.90;99.90
18777;DHT22;9517;51.174;4.160;2022-08-03T12:50:28;36.30;99.90
18777;DHT22;9517;51.174;4.160;2022-08-03T12:52:55;36.60;99.90
18777;DHT22;9517;51.174;4.160;2022-08-03T12:55:23;37.30;99.90
18777;DHT22;9517;51.174;4.160;2022-08-03T12:57:53;36.20;99.90
18777;DHT22;9517;51.174;4.160;2022-08-03T13:00:20;36.50;99.90
18777;DHT22;9517;51.174;4.160;2022-08-03T13:02:59;37.00;99.90
18777;DHT22;9517;51.174;4.160;2022-08-03T13:05:27;38.00;99.60
18777;DHT22;9517;51.174;4.160;2022-08-03T13:07:54;38.50;97.80
18777;DHT22;9517;51.174;4.160;2022-08-03T13:10:28;38.60;98.30
18777;DHT22;9517;51.174;4.160;2022-08-03T13:12:58;38.40;97.40
18777;DHT22;9517;51.174;4.160;2022-08-03T13:15:28;38.30;97.80
18777;DHT22;9517;51.174;4.160;2022-08-03T13:17:55;37.80;97.40
18777;DHT22;9517;51.174;4.160;2022-08-03T13:20:23;37.10;98.90
18777;DHT22;9517;51.174;4.160;2022-08-03T13:22:50;37.20;98.40
18777;DHT22;9517;51.174;4.160;2022-08-03T13:25:17;38.00;98.30
18777;DHT22;9517;51.174;4.160;2022-08-03T13:27:45;38.40;97.30
18777;DHT22;9517;51.174;4.160;2022-08-03T13:30:14;38.30;96.20
18777;DHT22;9517;51.174;4.160;2022-08-03T13:32:41;38.30;96.80
18777;DHT22;9517;51.174;4.160;2022-08-03T13:35:10;38.10;97.00
18777;DHT22;9517;51.174;4.160;2022-08-03T13:37:37;37.60;97.10
18777;DHT22;9517;51.174;4.160;2022-08-03T13:40:06;37.50;97.30
18777;DHT22;9517;51.174;4.160;2022-08-03T13:42:34;37.50;98.40
18777;DHT22;9517;51.174;4.160;2022-08-03T13:45:03;37.50;96.90
18777;DHT22;9517;51.174;4.160;2022-08-03T13:47:33;36.90;97.90
18777;DHT22;9517;51.174;4.160;2022-08-03T13:50:01;36.20;97.70
18777;DHT22;9517;51.174;4.160;2022-08-03T13:52:33;37.30;97.90
18777;DHT22;9517;51.174;4.160;2022-08-03T13:55:00;38.40;97.30
18777;DHT22;9517;51.174;4.160;2022-08-03T13:57:27;38.80;96.20
18777;DHT22;9517;51.174;4.160;2022-08-03T13:59:55;38.50;95.30
18777;DHT22;9517;51.174;4.160;2022-08-03T14:02:22;38.30;95.90
18777;DHT22;9517;51.174;4.160;2022-08-03T14:04:50;38.30;95.40
18777;DHT22;9517;51.174;4.160;2022-08-03T14:07:18;38.50;94.90
18777;DHT22;9517;51.174;4.160;2022-08-03T14:09:45;38.80;94.30
18777;DHT22;9517;51.174;4.160;2022-08-03T14:12:12;38.00;95.30
18777;DHT22;9517;51.174;4.160;2022-08-03T14:14:39;37.50;96.20
18777;DHT22;9517;51.174;4.160;2022-08-03T14:17:07;36.90;97.90
18777;DHT22;9517;51.174;4.160;2022-08-03T14:19:35;37.40;96.90
18777;DHT22;9517;51.174;4.160;2022-08-03T14:22:06;38.10;95.90
18777;DHT22;9517;51.174;4.160;2022-08-03T14:24:33;37.90;95.90
18777;DHT22;9517;51.174;4.160;2022-08-03T14:27:00;37.20;96.70
18777;DHT22;9517;51.174;4.160;2022-08-03T14:29:27;37.20;96.90
18777;DHT22;9517;51.174;4.160;2022-08-03T14:31:54;37.30;96.20
18777;DHT22;9517;51.174;4.160;2022-08-03T14:34:22;37.00;96.40
18777;DHT22;9517;51.174;4.160;2022-08-03T14:36:49;37.30;96.10
18777;DHT22;9517;51.174;4.160;2022-08-03T14:39:17;37.20;95.50
18777;DHT22;9517;51.174;4.160;2022-08-03T14:41:44;38.10;95.40
18777;DHT22;9517;51.174;4.160;2022-08-03T14:44:11;38.80;95.20
18777;DHT22;9517;51.174;4.160;2022-08-03T14:46:39;38.30;94.60
18777;DHT22;9517;51.174;4.160;2022-08-03T14:49:08;39.00;95.00
18777;DHT22;9517;51.174;4.160;2022-08-03T14:51:35;39.60;93.60
18777;DHT22;9517;51.174;4.160;2022-08-03T14:54:02;39.90;93.70
18777;DHT22;9517;51.174;4.160;2022-08-03T14:56:31;40.10;92.30
18777;DHT22;9517;51.174;4.160;2022-08-03T14:58:58;39.70;91.80
18777;DHT22;9517;51.174;4.160;2022-08-03T15:01:25;38.70;92.40
18777;DHT22;9517;51.174;4.160;2022-08-03T15:03:52;38.60;93.50
18777;DHT22;9517;51.174;4.160;2022-08-03T15:06:19;39.00;92.40
18777;DHT22;9517;51.174;4.160;2022-08-03T15:08:46;39.00;93.60
18777;DHT22;9517;51.174;4.160;2022-08-03T15:11:14;38.90;92.50
18777;DHT22;9517;51.174;4.160;2022-08-03T15:13:46;39.40;92.30
18777;DHT22;9517;51.174;4.160;2022-08-03T15:16:13;38.90;92.90
18777;DHT22;9517;51.174;4.160;2022-08-03T15:18:40;38.70;92.70
18777;DHT22;9517;51.174;4.160;2022-08-03T15:21:07;39.40;92.60
18777;DHT22;9517;51.174;4.160;2022-08-03T15:23:34;39.30;91.60
18777;DHT22;9517;51.174;4.160;2022-08-03T15:26:01;39.20;92.40
18777;DHT22;9517;51.174;4.160;2022-08-03T15:28:28;38.60;92.90
18777;DHT22;9517;51.174;4.160;2022-08-03T15:30:57;37.60;92.40
18777;DHT22;9517;51.174;4.160;2022-08-03T15:33:24;36.50;94.10
18777;DHT22;9517;51.174;4.160;2022-08-03T15:35:54;36.80;93.30
18777;DHT22;9517;51.174;4.160;2022-08-03T15:38:21;36.60;93.90
18777;DHT22;9517;51.174;4.160;2022-08-03T15:40:48;35.90;93.30
18777;DHT22;9517;51.174;4.160;2022-08-03T15:43:18;35.40;94.40
18777;DHT22;9517;51.174;4.160;2022-08-03T15:45:46;35.40;94.40
18777;DHT22;9517;51.174;4.160;2022-08-03T15:48:14;35.90;94.30
18777;DHT22;9517;51.174;4.160;2022-08-03T15:50:41;36.40;93.50
18777;DHT22;9517;51.174;4.160;2022-08-03T15:53:08;37.00;93.70
18777;DHT22;9517;51.174;4.160;2022-08-03T15:55:38;37.10;93.20
18777;DHT22;9517;51.174;4.160;2022-08-03T15:58:06;37.60;93.00
18777;DHT22;9517;51.174;4.160;2022-08-03T16:00:33;37.60;92.50
18777;DHT22;9517;51.174;4.160;2022-08-03T16:03:00;37.70;92.70
18777;DHT22;9517;51.174;4.160;2022-08-03T16:05:29;37.40;92.50
18777;DHT22;9517;51.174;4.160;2022-08-03T16:07:56;37.60;92.70
18777;DHT22;9517;51.174;4.160;2022-08-03T16:10:23;37.90;92.30
18777;DHT22;9517;51.174;4.160;2022-08-03T16:12:54;37.80;92.10
18777;DHT22;9517;51.174;4.160;2022-08-03T16:15:21;37.30;92.50
18777;DHT22;9517;51.174;4.160;2022-08-03T16:17:48;37.10;92.50
18777;DHT22;9517;51.174;4.160;2022-08-03T16:20:15;36.80;93.00